sensor_id;sensor_type;location;lat;lon;timestamp;pressure;altitude;pressure_sealevel;temperature;humidity
7052;BME280;3567;52.444;13.556;2023-05-16T00:00:01;100520.16;;;14.27;93.61
7052;BME280;3567;52.444;13.556;2023-05-16T00:02:31;100517.19;;;14.23;93.80
7052;BME280;3567;52.444;13.556;2023-05-16T00:04:56;100515.81;;;14.21;93.95
7052;BME280;3567;52.444;13.556;2023-05-16T00:07:22;100524.16;;;14.19;93.91
7052;BME280;3567;52.444;13.556;2023-05-16T00:09:47;100523.63;;;14.17;93.58
7052;BME280;3567;52.444;13.556;2023-05-16T00:12:12;100528.69;;;14.13;93.90
7052;BME280;3567;52.444;13.556;2023-05-16T00:14:38;100526.81;;;14.14;94.11
7052;BME280;3567;52.444;13.556;2023-05-16T00:17:03;100533.28;;;14.13;94.08
7052;BME280;3567;52.444;13.556;2023-05-16T00:19:35;100528.41;;;14.10;93.69
7052;BME280;3567;52.444;13.556;2023-05-16T00:22:01;100530.00;;;14.11;93.66
7052;BME280;3567;52.444;13.556;2023-05-16T00:24:27;100529.78;;;14.12;93.43
7052;BME280;3567;52.444;13.556;2023-05-16T00:26:52;100524.63;;;14.11;92.87
7052;BME280;3567;52.444;13.556;2023-05-16T00:29:17;100525.47;;;14.11;93.12
7052;BME280;3567;52.444;13.556;2023-05-16T00:31:43;100531.66;;;14.12;92.64
7052;BME280;3567;52.444;13.556;2023-05-16T00:34:08;100530.00;;;14.11;92.93
7052;BME280;3567;52.444;13.556;2023-05-16T00:36:33;100529.78;;;14.12;92.47
7052;BME280;3567;52.444;13.556;2023-05-16T00:39:00;100526.28;;;14.12;92.83
7052;BME280;3567;52.444;13.556;2023-05-16T00:41:26;100537.84;;;14.12;92.93
7052;BME280;3567;52.444;13.556;2023-05-16T00:43:51;100536.25;;;14.11;93.03
7052;BME280;3567;52.444;13.556;2023-05-16T00:46:17;100539.16;;;14.10;92.98
7052;BME280;3567;52.444;13.556;2023-05-16T00:48:42;100535.94;;;14.08;93.60
7052;BME280;3567;52.444;13.556;2023-05-16T00:51:08;100537.25;;;14.05;93.50
7052;BME280;3567;52.444;13.556;2023-05-16T00:53:34;100540.69;;;14.01;94.13
7052;BME280;3567;52.444;13.556;2023-05-16T00:56:00;100538.78;;;13.96;94.33
7052;BME280;3567;52.444;13.556;2023-05-16T00:58:26;100549.53;;;13.91;95.13
7052;BME280;3567;52.444;13.556;2023-05-16T01:00:54;100543.00;;;13.87;94.83
7052;BME280;3567;52.444;13.556;2023-05-16T01:03:20;100547.84;;;13.85;95.00
7052;BME280;3567;52.444;13.556;2023-05-16T01:05:45;100555.34;;;13.83;95.39
7052;BME280;3567;52.444;13.556;2023-05-16T01:08:11;100551.31;;;13.80;95.75
7052;BME280;3567;52.444;13.556;2023-05-16T01:10:48;100560.69;;;13.78;95.27
7052;BME280;3567;52.444;13.556;2023-05-16T01:13:47;100563.91;;;13.75;95.60
7052;BME280;3567;52.444;13.556;2023-05-16T01:16:21;100559.50;;;13.69;95.89
7052;BME280;3567;52.444;13.556;2023-05-16T01:19:20;100564.28;;;13.61;96.06
7052;BME280;3567;52.444;13.556;2023-05-16T01:21:59;100573.91;;;13.57;96.50
7052;BME280;3567;52.444;13.556;2023-05-16T01:24:39;100579.81;;;13.54;96.74
7052;BME280;3567;52.444;13.556;2023-05-16T01:27:08;100587.31;;;13.52;97.19
7052;BME280;3567;52.444;13.556;2023-05-16T01:29:34;100585.69;;;13.51;96.91
7052;BME280;3567;52.444;13.556;2023-05-16T01:32:00;100595.09;;;13.49;97.17
7052;BME280;3567;52.444;13.556;2023-05-16T01:34:25;100587.78;;;13.44;98.15
7052;BME280;3567;52.444;13.556;2023-05-16T01:37:05;100598.47;;;13.39;98.65
7052;BME280;3567;52.444;13.556;2023-05-16T01:42:26;100602.41;;;13.31;99.53
7052;BME280;3567;52.444;13.556;2023-05-16T01:44:59;100597.53;;;13.28;99.65
7052;BME280;3567;52.444;13.556;2023-05-16T01:47:28;100600.47;;;13.27;99.67
7052;BME280;3567;52.444;13.556;2023-05-16T01:50:06;100600.59;;;13.20;99.56
7052;BME280;3567;52.444;13.556;2023-05-16T01:55:01;100620.34;;;13.09;100.00
7052;BME280;3567;52.444;13.556;2023-05-16T01:57:28;100629.44;;;13.03;100.00
7052;BME280;3567;52.444;13.556;2023-05-16T01:59:56;100631.47;;;12.96;100.00
7052;BME280;3567;52.444;13.556;2023-05-16T02:02:22;100630.09;;;12.93;100.00
7052;BME280;3567;52.444;13.556;2023-05-16T02:04:47;100629.19;;;12.88;100.00
7052;BME280;3567;52.444;13.556;2023-05-16T02:07:12;100633.13;;;12.80;100.00
7052;BME280;3567;52.444;13.556;2023-05-16T02:09:40;100636.53;;;12.75;100.00
7052;BME280;3567;52.444;13.556;2023-05-16T02:12:06;100632.97;;;12.70;100.00
7052;BME280;3567;52.444;13.556;2023-05-16T02:14:31;100640.94;;;12.65;100.00
7052;BME280;3567;52.444;13.556;2023-05-16T02:16:57;100640.59;;;12.61;100.00
7052;BME280;3567;52.444;13.556;2023-05-16T02:19:22;100641.13;;;12.58;100.00
7052;BME280;3567;52.444;13.556;2023-05-16T02:21:48;100653.41;;;12.54;100.00
7052;BME280;3567;52.444;13.556;2023-05-16T02:24:14;100659.50;;;12.49;100.00
7052;BME280;3567;52.444;13.556;2023-05-16T02:26:39;100667.47;;;12.44;100.00
7052;BME280;3567;52.444;13.556;2023-05-16T02:29:05;100669.72;;;12.36;100.00
7052;BME280;3567;52.444;13.556;2023-05-16T02:31:32;100672.09;;;12.32;100.00
7052;BME280;3567;52.444;13.556;2023-05-16T02:33:59;100688.13;;;12.27;100.00
7052;BME280;3567;52.444;13.556;2023-05-16T02:36:24;100673.19;;;12.19;100.00
7052;BME280;3567;52.444;13.556;2023-05-16T02:38:50;100676.53;;;12.10;100.00
7052;BME280;3567;52.444;13.556;2023-05-16T02:41:15;100675.38;;;12.05;100.00
7052;BME280;3567;52.444;13.556;2023-05-16T02:43:41;100687.38;;;12.03;100.00
7052;BME280;3567;52.444;13.556;2023-05-16T02:46:28;100688.34;;;11.97;100.00
7052;BME280;3567;52.444;13.556;2023-05-16T02:48:55;100693.06;;;11.90;100.00
7052;BME280;3567;52.444;13.556;2023-05-16T02:51:22;100698.56;;;11.83;99.75
7052;BME280;3567;52.444;13.556;2023-05-16T02:53:48;100697.00;;;11.75;99.77
7052;BME280;3567;52.444;13.556;2023-05-16T02:56:14;100705.31;;;11.74;99.84
7052;BME280;3567;52.444;13.556;2023-05-16T02:58:39;100701.81;;;11.73;100.00
7052;BME280;3567;52.444;13.556;2023-05-16T03:01:05;100707.44;;;11.72;99.87
7052;BME280;3567;52.444;13.556;2023-05-16T03:03:31;100713.25;;;11.69;100.00
7052;BME280;3567;52.444;13.556;2023-05-16T03:05:59;100709.16;;;11.66;100.00
7052;BME280;3567;52.444;13.556;2023-05-16T03:08:24;100710.00;;;11.67;100.00
7052;BME280;3567;52.444;13.556;2023-05-16T03:10:50;100711.28;;;11.64;100.00
7052;BME280;3567;52.444;13.556;2023-05-16T03:13:15;100716.41;;;11.66;100.00
7052;BME280;3567;52.444;13.556;2023-05-16T03:15:41;100716.06;;;11.62;100.00
7052;BME280;3567;52.444;13.556;2023-05-16T03:18:06;100723.75;;;11.59;100.00
7052;BME280;3567;52.444;13.556;2023-05-16T03:20:32;100727.50;;;11.58;100.00
7052;BME280;3567;52.444;13.556;2023-05-16T03:22:58;100731.25;;;11.57;100.00
7052;BME280;3567;52.444;13.556;2023-05-16T03:25:23;100725.06;;;11.56;100.00
7052;BME280;3567;52.444;13.556;2023-05-16T03:27:48;100729.13;;;11.59;100.00
7052;BME280;3567;52.444;13.556;2023-05-16T03:30:14;100729.13;;;11.59;100.00
7052;BME280;3567;52.444;13.556;2023-05-16T03:32:40;100734.50;;;11.59;100.00
7052;BME280;3567;52.444;13.556;2023-05-16T03:35:05;100726.69;;;11.57;100.00
7052;BME280;3567;52.444;13.556;2023-05-16T03:37:31;100731.69;;;11.53;100.00
7052;BME280;3567;52.444;13.556;2023-05-16T03:39:56;100726.81;;;11.50;100.00
7052;BME280;3567;52.444;13.556;2023-05-16T03:42:22;100727.38;;;11.52;100.00
7052;BME280;3567;52.444;13.556;2023-05-16T03:44:47;100725.16;;;11.49;100.00
7052;BME280;3567;52.444;13.556;2023-05-16T03:47:12;100738.56;;;11.49;100.00
7052;BME280;3567;52.444;13.556;2023-05-16T03:49:38;100739.19;;;11.51;100.00
7052;BME280;3567;52.444;13.556;2023-05-16T03:52:04;100737.56;;;11.50;100.00
7052;BME280;3567;52.444;13.556;2023-05-16T03:54:30;100737.56;;;11.50;100.00
7052;BME280;3567;52.444;13.556;2023-05-16T03:56:56;100735.91;;;11.49;100.00
7052;BME280;3567;52.444;13.556;2023-05-16T03:59:21;100747.22;;;11.51;100.00
7052;BME280;3567;52.444;13.556;2023-05-16T04:01:46;100755.72;;;11.48;100.00
7052;BME280;3567;52.444;13.556;2023-05-16T04:04:12;100762.38;;;11.46;100.00
7052;BME280;3567;52.444;13.556;2023-05-16T04:06:38;100753.97;;;11.42;100.00
7052;BME280;3567;52.444;13.556;2023-05-16T04:09:03;100761.22;;;11.42;100.00
7052;BME280;3567;52.444;13.556;2023-05-16T04:11:30;100760.63;;;11.40;100.00
7052;BME280;3567;52.444;13.556;2023-05-16T04:13:56;100768.34;;;11.36;100.00
7052;BME280;3567;52.444;13.556;2023-05-16T04:16:21;100772.63;;;11.37;100.00
7052;BME280;3567;52.444;13.556;2023-05-16T04:18:46;100783.94;;;11.39;100.00
7052;BME280;3567;52.444;13.556;2023-05-16T04:21:12;100785.00;;;11.38;100.00
7052;BME280;3567;52.444;13.556;2023-05-16T04:23:40;100790.59;;;11.37;100.00
7052;BME280;3567;52.444;13.556;2023-05-16T04:26:05;100798.88;;;11.35;100.00
7052;BME280;3567;52.444;13.556;2023-05-16T04:28:30;100800.16;;;11.33;100.00
7052;BME280;3567;52.444;13.556;2023-05-16T04:30:56;100802.03;;;11.32;100.00
7052;BME280;3567;52.444;13.556;2023-05-16T04:33:22;100796.53;;;11.27;100.00
7052;BME280;3567;52.444;13.556;2023-05-16T04:35:47;100807.50;;;11.25;100.00
7052;BME280;3567;52.444;13.556;2023-05-16T04:38:12;100804.00;;;11.25;100.00
7052;BME280;3567;52.444;13.556;2023-05-16T04:40:38;100811.44;;;11.23;100.00
7052;BME280;3567;52.444;13.556;2023-05-16T04:43:05;100818.66;;;11.22;100.00
7052;BME280;3567;52.444;13.556;2023-05-16T04:45:31;100818.91;;;11.21;100.00
7052;BME280;3567;52.444;13.556;2023-05-16T04:47:56;100829.13;;;11.12;100.00
7052;BME280;3567;52.444;13.556;2023-05-16T04:50:22;100828.19;;;11.07;100.00
7052;BME280;3567;52.444;13.556;2023-05-16T04:52:47;100834.38;;;11.07;100.00
7052;BME280;3567;52.444;13.556;2023-05-16T04:55:12;100838.22;;;10.99;100.00
7052;BME280;3567;52.444;13.556;2023-05-16T04:57:37;100846.00;;;11.01;100.00
7052;BME280;3567;52.444;13.556;2023-05-16T05:00:05;100849.38;;;10.96;100.00
7052;BME280;3567;52.444;13.556;2023-05-16T05:02:33;100853.09;;;10.95;100.00
7052;BME280;3567;52.444;13.556;2023-05-16T05:04:58;100853.59;;;10.92;100.00
7052;BME280;3567;52.444;13.556;2023-05-16T05:07:23;100856.13;;;10.87;100.00
7052;BME280;3567;52.444;13.556;2023-05-16T05:09:52;100864.16;;;10.87;100.00
7052;BME280;3567;52.444;13.556;2023-05-16T05:12:20;100868.91;;;10.85;100.00
7052;BME280;3567;52.444;13.556;2023-05-16T05:14:45;100876.75;;;10.87;100.00
7052;BME280;3567;52.444;13.556;2023-05-16T05:17:11;100886.63;;;10.86;100.00
7052;BME280;3567;52.444;13.556;2023-05-16T05:19:36;100886.28;;;10.83;100.00
7052;BME280;3567;52.444;13.556;2023-05-16T05:22:01;100893.84;;;10.86;100.00
7052;BME280;3567;52.444;13.556;2023-05-16T05:24:27;100893.03;;;10.85;100.00
7052;BME280;3567;52.444;13.556;2023-05-16T05:26:52;100891.16;;;10.86;100.00
7052;BME280;3567;52.444;13.556;2023-05-16T05:29:17;100893.03;;;10.85;100.00
7052;BME280;3567;52.444;13.556;2023-05-16T05:31:43;100909.72;;;10.87;100.00
7052;BME280;3567;52.444;13.556;2023-05-16T05:34:08;100912.16;;;10.89;100.00
7052;BME280;3567;52.444;13.556;2023-05-16T05:36:33;100919.47;;;10.82;100.00
7052;BME280;3567;52.444;13.556;2023-05-16T05:38:59;100923.66;;;10.78;100.00
7052;BME280;3567;52.444;13.556;2023-05-16T05:41:24;100924.47;;;10.78;100.00
7052;BME280;3567;52.444;13.556;2023-05-16T05:43:50;100915.13;;;10.81;100.00
7052;BME280;3567;52.444;13.556;2023-05-16T05:46:16;100929.34;;;10.81;100.00
7052;BME280;3567;52.444;13.556;2023-05-16T05:48:41;100923.88;;;10.76;100.00
7052;BME280;3567;52.444;13.556;2023-05-16T05:51:07;100931.69;;;10.78;100.00
7052;BME280;3567;52.444;13.556;2023-05-16T05:53:33;100933.16;;;10.73;100.00
7052;BME280;3567;52.444;13.556;2023-05-16T05:55:58;100928.03;;;10.72;100.00
7052;BME280;3567;52.444;13.556;2023-05-16T05:58:24;100937.47;;;10.74;100.00
7052;BME280;3567;52.444;13.556;2023-05-16T06:00:49;100934.13;;;10.79;100.00
7052;BME280;3567;52.444;13.556;2023-05-16T06:03:15;100941.72;;;10.82;100.00
7052;BME280;3567;52.444;13.556;2023-05-16T06:05:40;100938.81;;;10.84;100.00
7052;BME280;3567;52.444;13.556;2023-05-16T06:08:06;100938.16;;;10.88;100.00
7052;BME280;3567;52.444;13.556;2023-05-16T06:10:31;100944.47;;;10.94;100.00
7052;BME280;3567;52.444;13.556;2023-05-16T06:12:57;100941.13;;;10.98;100.00
7052;BME280;3567;52.444;13.556;2023-05-16T06:15:22;100949.50;;;11.02;100.00
7052;BME280;3567;52.444;13.556;2023-05-16T06:17:47;100935.91;;;11.04;100.00
7052;BME280;3567;52.444;13.556;2023-05-16T06:20:13;100935.81;;;11.10;100.00
7052;BME280;3567;52.444;13.556;2023-05-16T06:22:38;100940.25;;;11.16;100.00
7052;BME280;3567;52.444;13.556;2023-05-16T06:25:04;100933.78;;;11.24;99.93
7052;BME280;3567;52.444;13.556;2023-05-16T06:27:29;100931.78;;;11.31;99.38
7052;BME280;3567;52.444;13.556;2023-05-16T06:29:55;100941.84;;;11.36;99.44
7052;BME280;3567;52.444;13.556;2023-05-16T06:32:20;100947.09;;;11.42;98.71
7052;BME280;3567;52.444;13.556;2023-05-16T06:34:47;100955.84;;;11.49;97.61
7052;BME280;3567;52.444;13.556;2023-05-16T06:37:12;100960.31;;;11.55;97.29
7052;BME280;3567;52.444;13.556;2023-05-16T06:39:37;100965.81;;;11.61;96.80
7052;BME280;3567;52.444;13.556;2023-05-16T06:42:03;100968.63;;;11.66;95.31
7052;BME280;3567;52.444;13.556;2023-05-16T06:44:28;100975.84;;;11.65;94.93
7052;BME280;3567;52.444;13.556;2023-05-16T06:46:54;100969.22;;;11.68;95.19
7052;BME280;3567;52.444;13.556;2023-05-16T06:49:19;100974.22;;;11.64;94.26
7052;BME280;3567;52.444;13.556;2023-05-16T06:51:44;100977.72;;;11.65;94.19
7052;BME280;3567;52.444;13.556;2023-05-16T06:54:10;100977.81;;;11.58;93.74
7052;BME280;3567;52.444;13.556;2023-05-16T06:56:35;100986.69;;;11.59;94.17
7052;BME280;3567;52.444;13.556;2023-05-16T06:59:00;100982.50;;;11.63;94.59
7052;BME280;3567;52.444;13.556;2023-05-16T07:01:26;100991.75;;;11.67;94.36
7052;BME280;3567;52.444;13.556;2023-05-16T07:03:52;100995.81;;;11.69;94.48
7052;BME280;3567;52.444;13.556;2023-05-16T07:06:17;100997.25;;;11.72;94.22
7052;BME280;3567;52.444;13.556;2023-05-16T07:08:42;101007.22;;;11.65;94.11
7052;BME280;3567;52.444;13.556;2023-05-16T07:11:07;101002.81;;;11.70;94.20
7052;BME280;3567;52.444;13.556;2023-05-16T07:13:35;100994.75;;;11.70;93.67
7052;BME280;3567;52.444;13.556;2023-05-16T07:16:00;101003.16;;;11.62;93.22
7052;BME280;3567;52.444;13.556;2023-05-16T07:18:26;100999.78;;;11.67;93.78
7052;BME280;3567;52.444;13.556;2023-05-16T07:20:51;101017.88;;;11.71;93.13
7052;BME280;3567;52.444;13.556;2023-05-16T07:23:17;101016.59;;;11.74;92.89
7052;BME280;3567;52.444;13.556;2023-05-16T07:25:42;101006.44;;;11.76;92.92
7052;BME280;3567;52.444;13.556;2023-05-16T07:28:07;101017.78;;;11.78;92.02
7052;BME280;3567;52.444;13.556;2023-05-16T07:30:33;101010.72;;;11.84;92.54
7052;BME280;3567;52.444;13.556;2023-05-16T07:32:59;101013.28;;;11.90;92.54
7052;BME280;3567;52.444;13.556;2023-05-16T07:35:24;101010.16;;;11.93;92.16
7052;BME280;3567;52.444;13.556;2023-05-16T07:37:49;101015.03;;;11.96;92.07
7052;BME280;3567;52.444;13.556;2023-05-16T07:40:15;101007.56;;;11.98;91.28
7052;BME280;3567;52.444;13.556;2023-05-16T07:42:42;101017.63;;;12.03;91.76
7052;BME280;3567;52.444;13.556;2023-05-16T07:45:07;101014.63;;;12.11;91.55
7052;BME280;3567;52.444;13.556;2023-05-16T07:47:33;101023.03;;;12.15;90.79
7052;BME280;3567;52.444;13.556;2023-05-16T07:49:59;101022.09;;;12.21;91.09
7052;BME280;3567;52.444;13.556;2023-05-16T07:52:24;101022.34;;;12.31;90.42
7052;BME280;3567;52.444;13.556;2023-05-16T07:54:50;101022.47;;;12.36;90.43
7052;BME280;3567;52.444;13.556;2023-05-16T07:57:15;101014.28;;;12.43;89.40
7052;BME280;3567;52.444;13.556;2023-05-16T07:59:41;101029.47;;;12.49;89.54
7052;BME280;3567;52.444;13.556;2023-05-16T08:02:07;101021.88;;;12.57;89.10
7052;BME280;3567;52.444;13.556;2023-05-16T08:04:32;101035.06;;;12.71;88.89
7052;BME280;3567;52.444;13.556;2023-05-16T08:06:57;101039.28;;;12.78;88.50
7052;BME280;3567;52.444;13.556;2023-05-16T08:09:23;101046.03;;;12.81;88.48
7052;BME280;3567;52.444;13.556;2023-05-16T08:11:48;101054.56;;;12.78;87.86
7052;BME280;3567;52.444;13.556;2023-05-16T08:14:14;101061.94;;;12.71;87.46
7052;BME280;3567;52.444;13.556;2023-05-16T08:16:39;101066.25;;;12.60;87.37
7052;BME280;3567;52.444;13.556;2023-05-16T08:19:05;101061.34;;;12.45;87.42
7052;BME280;3567;52.444;13.556;2023-05-16T08:21:31;101056.44;;;12.42;88.40
7052;BME280;3567;52.444;13.556;2023-05-16T08:23:56;101065.09;;;12.44;88.65
7052;BME280;3567;52.444;13.556;2023-05-16T08:26:22;101071.50;;;12.43;88.66
7052;BME280;3567;52.444;13.556;2023-05-16T08:28:47;101071.28;;;12.45;88.26
7052;BME280;3567;52.444;13.556;2023-05-16T08:31:13;101078.53;;;12.44;88.22
7052;BME280;3567;52.444;13.556;2023-05-16T08:33:39;101076.75;;;12.38;87.40
7052;BME280;3567;52.444;13.556;2023-05-16T08:36:04;101070.22;;;12.34;87.97
7052;BME280;3567;52.444;13.556;2023-05-16T08:38:30;101068.22;;;12.29;87.64
7052;BME280;3567;52.444;13.556;2023-05-16T08:40:55;101075.69;;;12.27;87.41
7052;BME280;3567;52.444;13.556;2023-05-16T08:43:21;101077.22;;;12.23;87.84
7052;BME280;3567;52.444;13.556;2023-05-16T08:45:47;101080.81;;;12.17;88.31
7052;BME280;3567;52.444;13.556;2023-05-16T08:48:14;101085.75;;;12.20;88.29
7052;BME280;3567;52.444;13.556;2023-05-16T08:50:40;101078.25;;;12.22;88.40
7052;BME280;3567;52.444;13.556;2023-05-16T08:53:08;101072.06;;;12.22;88.09
7052;BME280;3567;52.444;13.556;2023-05-16T08:55:35;101076.63;;;12.21;88.45
7052;BME280;3567;52.444;13.556;2023-05-16T08:58:01;101069.38;;;12.22;88.04
7052;BME280;3567;52.444;13.556;2023-05-16T09:00:27;101076.88;;;12.20;88.15
7052;BME280;3567;52.444;13.556;2023-05-16T09:02:53;101074.38;;;12.18;88.48
7052;BME280;3567;52.444;13.556;2023-05-16T09:05:22;101079.56;;;12.20;88.54
7052;BME280;3567;52.444;13.556;2023-05-16T09:07:48;101075.56;;;12.11;88.20
7052;BME280;3567;52.444;13.556;2023-05-16T09:10:13;101081.03;;;12.04;88.70
7052;BME280;3567;52.444;13.556;2023-05-16T09:12:40;101091.03;;;11.97;88.12
7052;BME280;3567;52.444;13.556;2023-05-16T09:15:07;101093.97;;;11.95;88.32
7052;BME280;3567;52.444;13.556;2023-05-16T09:17:37;101097.22;;;11.97;88.91
7052;BME280;3567;52.444;13.556;2023-05-16T09:22:36;101096.56;;;12.14;88.44
7052;BME280;3567;52.444;13.556;2023-05-16T09:25:02;101095.69;;;12.31;87.75
7052;BME280;3567;52.444;13.556;2023-05-16T09:27:30;101092.88;;;12.38;87.06
7052;BME280;3567;52.444;13.556;2023-05-16T09:29:56;101094.41;;;12.46;86.82
7052;BME280;3567;52.444;13.556;2023-05-16T09:32:23;101087.75;;;12.48;86.50
7052;BME280;3567;52.444;13.556;2023-05-16T09:34:49;101098.88;;;12.64;86.31
7052;BME280;3567;52.444;13.556;2023-05-16T09:37:18;101100.97;;;12.73;85.65
7052;BME280;3567;52.444;13.556;2023-05-16T09:39:49;101104.25;;;12.75;85.34
7052;BME280;3567;52.444;13.556;2023-05-16T09:42:16;101092.81;;;12.68;84.04
7052;BME280;3567;52.444;13.556;2023-05-16T09:44:49;101096.19;;;12.64;83.72
7052;BME280;3567;52.444;13.556;2023-05-16T09:47:15;101106.56;;;12.60;84.32
7052;BME280;3567;52.444;13.556;2023-05-16T09:49:46;101107.88;;;12.57;84.19
7052;BME280;3567;52.444;13.556;2023-05-16T09:52:12;101108.31;;;12.66;85.31
7052;BME280;3567;52.444;13.556;2023-05-16T09:54:39;101104.81;;;12.66;84.45
7052;BME280;3567;52.444;13.556;2023-05-16T09:57:05;101107.63;;;12.71;84.98
7052;BME280;3567;52.444;13.556;2023-05-16T09:59:38;101102.94;;;12.78;84.62
7052;BME280;3567;52.444;13.556;2023-05-16T10:02:04;101105.75;;;12.83;84.77
7052;BME280;3567;52.444;13.556;2023-05-16T10:04:30;101107.97;;;12.86;84.59
7052;BME280;3567;52.444;13.556;2023-05-16T10:06:56;101111.25;;;12.88;83.00
7052;BME280;3567;52.444;13.556;2023-05-16T10:09:24;101113.34;;;12.86;83.38
7052;BME280;3567;52.444;13.556;2023-05-16T10:11:51;101116.63;;;12.88;83.76
7052;BME280;3567;52.444;13.556;2023-05-16T10:14:17;101113.84;;;12.95;83.05
7052;BME280;3567;52.444;13.556;2023-05-16T10:16:46;101125.53;;;13.00;82.90
7052;BME280;3567;52.444;13.556;2023-05-16T10:19:12;101119.53;;;12.98;82.71
7052;BME280;3567;52.444;13.556;2023-05-16T10:21:41;101125.84;;;13.04;83.01
7052;BME280;3567;52.444;13.556;2023-05-16T10:24:10;101121.53;;;13.03;82.06
7052;BME280;3567;52.444;13.556;2023-05-16T10:26:39;101120.97;;;13.01;81.81
7052;BME280;3567;52.444;13.556;2023-05-16T10:29:04;101125.03;;;13.03;82.10
7052;BME280;3567;52.444;13.556;2023-05-16T10:31:30;101127.03;;;13.08;82.21
7052;BME280;3567;52.444;13.556;2023-05-16T10:33:56;101126.88;;;13.15;82.63
7052;BME280;3567;52.444;13.556;2023-05-16T10:36:22;101128.06;;;13.19;82.15
7052;BME280;3567;52.444;13.556;2023-05-16T10:38:48;101125.25;;;13.14;81.55
7052;BME280;3567;52.444;13.556;2023-05-16T10:41:15;101143.41;;;13.06;81.61
7052;BME280;3567;52.444;13.556;2023-05-16T10:43:43;101140.59;;;13.01;81.51
7052;BME280;3567;52.444;13.556;2023-05-16T10:46:10;101139.19;;;12.99;82.16
7052;BME280;3567;52.444;13.556;2023-05-16T10:48:38;101137.78;;;12.96;82.01
7052;BME280;3567;52.444;13.556;2023-05-16T10:51:42;101143.06;;;12.91;82.93
7052;BME280;3567;52.444;13.556;2023-05-16T10:54:09;101127.50;;;12.93;83.26
7052;BME280;3567;52.444;13.556;2023-05-16T10:56:36;101131.84;;;13.06;82.27
7052;BME280;3567;52.444;13.556;2023-05-16T10:59:02;101129.63;;;13.26;82.59
7052;BME280;3567;52.444;13.556;2023-05-16T11:01:33;101140.06;;;13.51;82.55
7052;BME280;3567;52.444;13.556;2023-05-16T11:04:06;101140.78;;;13.47;80.87
7052;BME280;3567;52.444;13.556;2023-05-16T11:06:32;101145.03;;;13.43;80.57
7052;BME280;3567;52.444;13.556;2023-05-16T11:09:06;101151.00;;;13.33;80.51
7052;BME280;3567;52.444;13.556;2023-05-16T11:14:33;101166.22;;;13.16;81.70
7052;BME280;3567;52.444;13.556;2023-05-16T11:17:14;101167.59;;;13.06;82.28
7052;BME280;3567;52.444;13.556;2023-05-16T11:19:50;101172.50;;;12.86;81.87
7052;BME280;3567;52.444;13.556;2023-05-16T11:25:03;101164.50;;;12.56;82.87
7052;BME280;3567;52.444;13.556;2023-05-16T11:27:29;101174.19;;;12.45;82.79
7052;BME280;3567;52.444;13.556;2023-05-16T11:30:00;101168.69;;;12.40;83.38
7052;BME280;3567;52.444;13.556;2023-05-16T11:32:26;101173.84;;;12.42;83.04
7052;BME280;3567;52.444;13.556;2023-05-16T11:34:51;101172.56;;;12.44;82.62
7052;BME280;3567;52.444;13.556;2023-05-16T11:37:18;101165.81;;;12.53;82.75
7052;BME280;3567;52.444;13.556;2023-05-16T11:39:44;101172.00;;;12.66;81.25
7052;BME280;3567;52.444;13.556;2023-05-16T11:42:10;101172.38;;;12.81;81.19
7052;BME280;3567;52.444;13.556;2023-05-16T11:44:38;101169.25;;;12.96;81.27
7052;BME280;3567;52.444;13.556;2023-05-16T11:47:04;101179.75;;;13.09;79.59
7052;BME280;3567;52.444;13.556;2023-05-16T11:49:30;101182.22;;;13.10;79.65
7052;BME280;3567;52.444;13.556;2023-05-16T11:51:56;101180.47;;;13.16;80.30
7052;BME280;3567;52.444;13.556;2023-05-16T11:54:22;101185.75;;;13.23;80.21
7052;BME280;3567;52.444;13.556;2023-05-16T11:56:49;101185.28;;;13.26;79.56
7052;BME280;3567;52.444;13.556;2023-05-16T11:59:15;101181.31;;;13.28;78.96
7052;BME280;3567;52.444;13.556;2023-05-16T12:01:41;101187.50;;;13.29;77.25
7052;BME280;3567;52.444;13.556;2023-05-16T12:04:08;101178.72;;;13.33;77.46
7052;BME280;3567;52.444;13.556;2023-05-16T12:06:34;101180.34;;;13.34;76.70
7052;BME280;3567;52.444;13.556;2023-05-16T12:08:59;101184.94;;;13.34;76.07
7052;BME280;3567;52.444;13.556;2023-05-16T12:11:29;101184.22;;;13.39;75.37
7052;BME280;3567;52.444;13.556;2023-05-16T12:13:54;101181.41;;;13.45;74.56
7052;BME280;3567;52.444;13.556;2023-05-16T12:16:20;101182.97;;;13.81;74.88
7052;BME280;3567;52.444;13.556;2023-05-16T12:18:45;101192.47;;;14.75;73.52
7052;BME280;3567;52.444;13.556;2023-05-16T12:21:11;101193.34;;;15.31;71.22
7052;BME280;3567;52.444;13.556;2023-05-16T12:23:37;101194.69;;;15.50;68.05
7052;BME280;3567;52.444;13.556;2023-05-16T12:26:02;101183.22;;;15.43;66.66
7052;BME280;3567;52.444;13.556;2023-05-16T12:28:32;101193.25;;;15.26;66.58
7052;BME280;3567;52.444;13.556;2023-05-16T12:31:03;101190.09;;;15.12;66.83
7052;BME280;3567;52.444;13.556;2023-05-16T12:33:36;101201.13;;;15.10;67.88
7052;BME280;3567;52.444;13.556;2023-05-16T12:36:01;101206.22;;;14.90;66.15
7052;BME280;3567;52.444;13.556;2023-05-16T12:38:28;101207.03;;;14.74;66.56
7052;BME280;3567;52.444;13.556;2023-05-16T12:40:57;101204.06;;;14.75;67.31
7052;BME280;3567;52.444;13.556;2023-05-16T12:43:23;101193.16;;;14.65;66.37
7052;BME280;3567;52.444;13.556;2023-05-16T12:45:53;101189.69;;;14.53;67.77
7052;BME280;3567;52.444;13.556;2023-05-16T12:48:19;101198.13;;;14.56;68.21
7052;BME280;3567;52.444;13.556;2023-05-16T12:50:45;101196.56;;;14.60;69.28
7052;BME280;3567;52.444;13.556;2023-05-16T12:53:12;101198.84;;;14.68;68.88
7052;BME280;3567;52.444;13.556;2023-05-16T12:55:38;101190.94;;;14.62;67.63
7052;BME280;3567;52.444;13.556;2023-05-16T12:58:03;101194.91;;;14.59;68.69
7052;BME280;3567;52.444;13.556;2023-05-16T13:00:29;101189.78;;;14.58;69.83
7052;BME280;3567;52.444;13.556;2023-05-16T13:02:56;101187.06;;;14.58;69.99
7052;BME280;3567;52.444;13.556;2023-05-16T13:05:21;101188.56;;;14.65;71.26
7052;BME280;3567;52.444;13.556;2023-05-16T13:07:48;101186.25;;;14.74;69.92